createdAt,value
2019-01-22T00:00:05.409Z,4.60
2019-01-22T00:01:09.493Z,4.30
2019-01-22T00:02:13.076Z,4.20
2019-01-22T00:03:16.811Z,4.37
2019-01-22T00:04:20.430Z,4.57
2019-01-22T00:05:24.101Z,4.37
2019-01-22T00:06:27.775Z,3.90
2019-01-22T00:07:31.588Z,4.10
2019-01-22T00:08:35.298Z,4.60
2019-01-22T00:09:38.799Z,4.70
2019-01-22T00:10:42.334Z,4.87
2019-01-22T00:11:46.231Z,4.90
2019-01-22T00:12:50.241Z,4.20
2019-01-22T00:13:53.901Z,3.80
2019-01-22T00:14:57.566Z,4.50
2019-01-22T00:16:01.260Z,4.20
2019-01-22T00:17:04.995Z,4.27
2019-01-22T00:18:08.751Z,4.13
2019-01-22T00:19:12.637Z,4.53
2019-01-22T00:20:16.658Z,4.03
2019-01-22T00:21:20.338Z,3.90
2019-01-22T00:22:23.850Z,4.10
2019-01-22T00:23:27.678Z,4.40
2019-01-22T00:24:31.186Z,5.13
2019-01-22T00:25:34.690Z,3.83
2019-01-22T00:26:38.494Z,3.90
2019-01-22T00:27:45.818Z,3.90
2019-01-22T00:28:49.530Z,4.20
2019-01-22T00:29:53.369Z,4.50
2019-01-22T00:30:56.906Z,4.20
2019-01-22T00:32:00.614Z,4.03
2019-01-22T00:33:04.400Z,4.20
2019-01-22T00:34:07.966Z,4.30
2019-01-22T00:35:11.606Z,4.70
2019-01-22T00:36:15.105Z,4.30
2019-01-22T00:37:18.643Z,4.40
2019-01-22T00:38:22.301Z,3.93
2019-01-22T00:39:25.803Z,4.30
2019-01-22T00:40:29.387Z,3.90
2019-01-22T00:41:33.097Z,3.77
2019-01-22T00:42:36.633Z,4.20
2019-01-22T00:43:40.151Z,4.40
2019-01-22T00:44:44.091Z,4.30
2019-01-22T00:45:47.780Z,4.27
2019-01-22T00:46:51.333Z,4.97
2019-01-22T00:47:55.035Z,4.17
2019-01-22T00:48:58.504Z,3.97
2019-01-22T00:50:02.079Z,3.72
2019-01-22T00:51:05.642Z,4.40
2019-01-22T00:52:09.238Z,4.57
2019-01-22T00:53:12.907Z,4.50
2019-01-22T00:54:16.413Z,4.00
2019-01-22T00:55:20.342Z,3.90
2019-01-22T00:56:23.984Z,3.87
2019-01-22T00:57:27.497Z,4.10
2019-01-22T00:58:31.274Z,3.77
2019-01-22T00:59:34.902Z,4.50
2019-01-22T01:00:39.112Z,4.20
2019-01-22T01:01:43.067Z,3.90
2019-01-22T01:02:46.807Z,3.87
2019-01-22T01:03:50.416Z,3.63
2019-01-22T01:04:54.117Z,4.13
2019-01-22T01:05:57.645Z,4.00
2019-01-22T01:07:01.337Z,4.27
2019-01-22T01:08:05.723Z,3.93
2019-01-22T01:09:09.976Z,3.97
2019-01-22T01:10:15.228Z,3.50
2019-01-22T01:11:20.544Z,3.70
2019-01-22T01:12:24.410Z,4.20
2019-01-22T01:13:27.995Z,4.13
2019-01-22T01:14:31.931Z,3.53
2019-01-22T01:15:35.695Z,3.77
2019-01-22T01:16:39.497Z,3.90
2019-01-22T01:17:43.790Z,4.47
2019-01-22T01:18:47.573Z,3.40
2019-01-22T01:19:51.155Z,4.20
2019-01-22T01:20:55.002Z,3.77
2019-01-22T01:21:58.522Z,3.83
2019-01-22T01:23:02.195Z,3.80
2019-01-22T01:24:06.052Z,3.70
2019-01-22T01:25:12.463Z,3.90
2019-01-22T01:26:16.236Z,3.30
2019-01-22T01:27:19.882Z,3.50
2019-01-22T01:28:23.438Z,4.37
2019-01-22T01:29:27.175Z,3.80
2019-01-22T01:30:31.087Z,4.30
2019-01-22T01:31:34.814Z,3.67
2019-01-22T01:32:38.528Z,4.00
2019-01-22T01:33:42.602Z,4.17
2019-01-22T01:34:46.185Z,3.70
2019-01-22T01:35:49.943Z,3.90
2019-01-22T01:36:53.591Z,4.10
2019-01-22T01:37:57.166Z,3.40
2019-01-22T01:39:01.172Z,3.40
2019-01-22T01:40:08.275Z,3.80
2019-01-22T01:41:12.061Z,3.77
2019-01-22T01:42:15.661Z,4.10
2019-01-22T01:43:19.293Z,3.50
2019-01-22T01:44:23.112Z,3.80
2019-01-22T01:45:26.795Z,3.60
2019-01-22T01:46:30.452Z,3.70
2019-01-22T01:47:34.025Z,3.75
2019-01-22T01:48:37.668Z,3.57
2019-01-22T01:49:41.440Z,3.70
2019-01-22T01:50:44.952Z,3.33
2019-01-22T01:51:48.463Z,4.13
2019-01-22T01:52:54.287Z,3.87
2019-01-22T01:53:57.805Z,3.60
2019-01-22T01:55:01.281Z,3.50
2019-01-22T01:56:04.946Z,3.83
2019-01-22T01:57:08.446Z,3.87
2019-01-22T01:58:12.109Z,3.35
2019-01-22T01:59:15.622Z,3.70
2019-01-22T02:00:20.300Z,3.57
2019-01-22T02:01:23.877Z,3.30
2019-01-22T02:02:27.630Z,3.20
2019-01-22T02:03:31.126Z,3.77
2019-01-22T02:04:34.981Z,3.47
2019-01-22T02:05:38.754Z,3.30
2019-01-22T02:06:42.417Z,3.70
2019-01-22T02:07:46.725Z,3.62
2019-01-22T02:08:50.287Z,3.50
2019-01-22T02:09:53.789Z,3.53
2019-01-22T02:10:57.581Z,3.40
2019-01-22T02:12:01.183Z,3.40
2019-01-22T02:13:07.606Z,3.70
2019-01-22T02:14:11.638Z,3.30
2019-01-22T02:15:33.377Z,3.67
2019-01-22T02:16:49.059Z,3.70
2019-01-22T02:18:10.383Z,3.53
2019-01-22T02:19:22.551Z,3.60
2019-01-22T02:20:31.891Z,3.20
2019-01-22T02:22:02.587Z,3.05
2019-01-22T02:23:09.236Z,3.55
2019-01-22T02:24:24.708Z,3.60
2019-01-22T02:25:46.171Z,3.40
2019-01-22T02:27:04.516Z,2.70
2019-01-22T02:28:27.158Z,3.30
2019-01-22T02:29:36.781Z,3.27
2019-01-22T02:31:01.595Z,3.20
2019-01-22T02:32:24.228Z,3.15
2019-01-22T02:33:42.750Z,3.50
2019-01-22T02:34:55.051Z,3.50
2019-01-22T02:36:13.526Z,3.50
2019-01-22T02:37:40.910Z,3.57
2019-01-22T02:39:01.978Z,3.80
2019-01-22T02:40:08.569Z,3.70
2019-01-22T02:41:17.930Z,3.60
2019-01-22T02:42:27.196Z,3.53
2019-01-22T02:43:36.302Z,3.67
2019-01-22T02:44:54.445Z,3.40
2019-01-22T02:46:17.207Z,3.50
2019-01-22T02:47:23.775Z,3.00
2019-01-22T02:49:00.624Z,3.10
2019-01-22T02:50:23.879Z,3.30
2019-01-22T02:51:42.359Z,3.37
2019-01-22T02:52:51.803Z,3.90
2019-01-22T02:53:58.364Z,3.73
2019-01-22T02:55:07.518Z,3.67
2019-01-22T02:56:29.016Z,3.20
2019-01-22T02:57:50.677Z,3.55
2019-01-22T02:59:15.043Z,3.00
2019-01-22T03:00:27.511Z,3.42
2019-01-22T03:01:48.916Z,3.30
2019-01-22T03:03:28.280Z,3.40
2019-01-22T03:04:43.774Z,2.80
2019-01-22T03:06:05.396Z,3.50
2019-01-22T03:07:29.551Z,3.37
2019-01-22T03:08:41.672Z,3.70
2019-01-22T03:09:54.087Z,3.83
2019-01-22T03:11:06.228Z,3.33
2019-01-22T03:12:21.501Z,3.43
2019-01-22T03:13:28.109Z,2.95
2019-01-22T03:14:46.339Z,3.15
2019-01-22T03:16:24.493Z,3.53
2019-01-22T03:17:42.971Z,3.08
2019-01-22T03:19:10.612Z,3.33
2019-01-22T03:20:31.623Z,3.27
2019-01-22T03:21:43.634Z,3.10
2019-01-22T03:23:01.937Z,3.52
2019-01-22T03:24:11.373Z,2.90
2019-01-22T03:25:20.973Z,3.10
2019-01-22T03:26:48.708Z,3.08
2019-01-22T03:27:57.928Z,2.75
2019-01-22T03:29:04.483Z,3.27
2019-01-22T03:30:19.789Z,3.50
2019-01-22T03:31:54.938Z,3.17
2019-01-22T03:33:01.502Z,3.10
2019-01-22T03:34:34.888Z,3.45
2019-01-22T03:35:50.288Z,3.05
2019-01-22T03:37:05.451Z,3.00
2019-01-22T03:38:11.980Z,3.20
2019-01-22T03:39:27.184Z,3.12
2019-01-22T03:40:33.872Z,3.47
2019-01-22T03:41:49.347Z,3.20
2019-01-22T03:42:58.595Z,2.70
2019-01-22T03:44:13.763Z,3.05
2019-01-22T03:45:25.963Z,3.12
2019-01-22T03:46:34.989Z,3.22
2019-01-22T03:47:53.411Z,3.42
2019-01-22T03:49:20.729Z,3.02
2019-01-22T03:50:39.081Z,2.77
2019-01-22T03:51:57.469Z,2.85
2019-01-22T03:53:26.052Z,2.70
2019-01-22T03:54:38.468Z,3.20
2019-01-22T03:55:45.101Z,2.90
2019-01-22T03:56:54.415Z,3.00
2019-01-22T03:57:58.044Z,3.03
2019-01-22T03:59:01.563Z,3.10
2019-01-22T04:00:10.906Z,3.50
2019-01-22T04:01:14.672Z,2.50
2019-01-22T04:02:18.605Z,2.70
2019-01-22T04:03:22.095Z,2.58
2019-01-22T04:04:25.652Z,2.30
2019-01-22T04:05:29.145Z,2.77
2019-01-22T04:06:32.689Z,2.77
2019-01-22T04:07:36.290Z,2.80
2019-01-22T04:08:40.693Z,3.13
2019-01-22T04:09:44.634Z,2.55
2019-01-22T04:10:52.613Z,3.07
2019-01-22T04:11:55.938Z,2.67
2019-01-22T04:12:59.603Z,2.60
2019-01-22T04:14:03.289Z,2.60
2019-01-22T04:15:10.094Z,2.30
2019-01-22T04:16:14.030Z,3.07
2019-01-22T04:17:17.610Z,2.60
2019-01-22T04:18:21.194Z,2.60
2019-01-22T04:19:24.877Z,2.70
2019-01-22T04:20:28.522Z,2.57
2019-01-22T04:21:32.739Z,2.60
2019-01-22T04:22:36.566Z,3.00
2019-01-22T04:23:43.699Z,2.50
2019-01-22T04:24:58.906Z,2.57
2019-01-22T04:26:21.896Z,2.60
2019-01-22T04:27:37.277Z,2.10
2019-01-22T04:29:00.483Z,2.50
2019-01-22T04:30:26.185Z,2.57
2019-01-22T04:31:35.699Z,2.60
2019-01-22T04:32:48.028Z,2.43
2019-01-22T04:34:09.664Z,2.20
2019-01-22T04:35:34.125Z,2.37
2019-01-22T04:36:52.836Z,2.57
2019-01-22T04:38:05.331Z,2.30
2019-01-22T04:39:14.545Z,2.80
2019-01-22T04:40:21.106Z,2.40
2019-01-22T04:41:46.832Z,2.63
2019-01-22T04:42:53.413Z,2.67
2019-01-22T04:44:14.840Z,2.17
2019-01-22T04:45:40.776Z,3.23
2019-01-22T04:46:56.320Z,2.77
2019-01-22T04:48:31.188Z,2.40
2019-01-22T04:49:46.593Z,2.40
2019-01-22T04:50:59.131Z,2.40
2019-01-22T04:52:08.393Z,2.20
2019-01-22T04:53:26.824Z,2.00
2019-01-22T04:54:45.041Z,2.47
2019-01-22T04:56:12.316Z,2.30
2019-01-22T04:57:18.855Z,2.00
2019-01-22T04:58:25.407Z,2.37
2019-01-22T04:59:31.940Z,2.40
2019-01-22T05:00:44.211Z,2.10
2019-01-22T05:01:50.800Z,2.40
2019-01-22T05:03:03.138Z,2.10
2019-01-22T05:04:15.330Z,2.10
2019-01-22T05:05:36.993Z,2.53
2019-01-22T05:06:46.612Z,2.30
2019-01-22T05:08:14.005Z,2.53
2019-01-22T05:09:37.085Z,2.23
2019-01-22T05:10:43.668Z,2.00
2019-01-22T05:12:07.941Z,2.43
2019-01-22T05:13:20.522Z,2.07
2019-01-22T05:14:46.508Z,2.13
2019-01-22T05:16:10.761Z,2.47
2019-01-22T05:17:17.337Z,2.37
2019-01-22T05:18:26.609Z,2.10
2019-01-22T05:19:41.657Z,2.63
2019-01-22T05:21:07.740Z,2.10
2019-01-22T05:22:29.344Z,2.30
2019-01-22T05:23:47.698Z,1.90
2019-01-22T05:25:02.951Z,2.17
2019-01-22T05:26:09.559Z,2.30
2019-01-22T05:27:18.849Z,2.40
2019-01-22T05:28:28.206Z,2.50
2019-01-22T05:29:40.541Z,2.80
2019-01-22T05:31:02.246Z,2.57
2019-01-22T05:32:11.785Z,2.70
2019-01-22T05:33:21.451Z,2.67
2019-01-22T05:34:37.236Z,3.40
2019-01-22T05:35:56.128Z,3.23
2019-01-22T05:37:13.959Z,3.67
2019-01-22T05:38:23.530Z,2.90
2019-01-22T05:39:41.539Z,3.47
2019-01-22T05:41:10.676Z,3.70
2019-01-22T05:42:41.257Z,3.70
2019-01-22T05:44:02.819Z,4.00
2019-01-22T05:45:21.244Z,4.60
2019-01-22T05:46:30.895Z,4.60
2019-01-22T05:48:13.457Z,4.80
2019-01-22T05:49:23.315Z,5.20
2019-01-22T05:50:32.396Z,5.30
2019-01-22T05:51:41.719Z,4.87
2019-01-22T05:52:53.992Z,5.73
2019-01-22T05:54:24.951Z,8.60
2019-01-22T05:55:32.049Z,8.33
2019-01-22T05:56:38.729Z,9.03
2019-01-22T05:57:45.477Z,8.50
2019-01-22T05:59:12.941Z,8.08
2019-01-22T06:00:19.794Z,8.07
2019-01-22T06:01:26.359Z,8.13
2019-01-22T06:02:32.968Z,9.40
2019-01-22T06:03:45.537Z,8.50
2019-01-22T06:05:20.680Z,7.77
2019-01-22T06:06:39.305Z,8.50
2019-01-22T06:07:45.846Z,8.33
2019-01-22T06:08:58.022Z,7.97
2019-01-22T06:10:21.303Z,8.40
2019-01-22T06:11:30.716Z,7.90
2019-01-22T06:12:43.607Z,7.63
2019-01-22T06:14:07.782Z,7.33
2019-01-22T06:15:32.001Z,7.20
2019-01-22T06:16:47.589Z,7.07
2019-01-22T06:17:56.992Z,7.50
2019-01-22T06:19:14.987Z,7.67
2019-01-22T06:20:48.888Z,7.03
2019-01-22T06:22:18.092Z,7.50
2019-01-22T06:23:30.084Z,7.83
2019-01-22T06:24:45.708Z,7.40
2019-01-22T06:26:08.885Z,7.50
2019-01-22T06:27:15.463Z,7.10
2019-01-22T06:28:38.264Z,6.80
2019-01-22T06:29:50.901Z,6.93
2019-01-22T06:31:03.113Z,7.03
2019-01-22T06:32:21.551Z,6.77
2019-01-22T06:33:36.899Z,7.40
2019-01-22T06:34:49.325Z,7.30
2019-01-22T06:36:25.809Z,7.80
2019-01-22T06:37:46.383Z,7.17
2019-01-22T06:39:12.535Z,7.10
2019-01-22T06:40:19.152Z,6.93
2019-01-22T06:41:34.306Z,6.70
2019-01-22T06:42:52.797Z,6.80
2019-01-22T06:44:04.926Z,6.03
2019-01-22T06:45:20.224Z,6.17
2019-01-22T06:46:26.839Z,6.67
2019-01-22T06:47:38.939Z,6.30
2019-01-22T06:49:00.079Z,6.50
2019-01-22T06:50:18.182Z,6.50
2019-01-22T06:51:41.632Z,6.83
2019-01-22T06:52:51.260Z,6.73
2019-01-22T06:54:09.505Z,6.43
2019-01-22T06:55:16.070Z,6.47
2019-01-22T06:56:31.264Z,6.70
2019-01-22T06:58:06.343Z,6.27
2019-01-22T06:59:38.457Z,6.40
2019-01-22T07:00:59.956Z,5.73
2019-01-22T07:02:09.672Z,6.07
2019-01-22T07:03:28.134Z,6.33
2019-01-22T07:04:43.451Z,6.40
2019-01-22T07:06:21.142Z,5.57
2019-01-22T07:07:48.010Z,5.70
2019-01-22T07:09:00.275Z,5.20
2019-01-22T07:10:15.004Z,6.10
2019-01-22T07:11:27.310Z,5.67
2019-01-22T07:12:54.903Z,5.53
2019-01-22T07:14:19.417Z,6.10
2019-01-22T07:15:31.850Z,5.33
2019-01-22T07:16:53.084Z,5.30
2019-01-22T07:18:23.997Z,5.30
2019-01-22T07:19:33.060Z,6.30
2019-01-22T07:20:57.552Z,4.90
2019-01-22T07:22:07.133Z,5.63
2019-01-22T07:23:13.701Z,5.90
2019-01-22T07:24:34.841Z,5.73
2019-01-22T07:25:41.595Z,5.53
2019-01-22T07:26:59.633Z,5.67
2019-01-22T07:28:12.164Z,5.50
2019-01-22T07:29:24.369Z,5.10
2019-01-22T07:30:45.708Z,5.30
2019-01-22T07:31:57.775Z,5.57
2019-01-22T07:33:15.861Z,4.90
2019-01-22T07:34:22.441Z,5.43
2019-01-22T07:35:34.504Z,5.30
2019-01-22T07:37:01.510Z,5.80
2019-01-22T07:38:13.977Z,5.37
2019-01-22T07:39:41.143Z,5.43
2019-01-22T07:40:53.526Z,5.00
2019-01-22T07:42:18.096Z,5.67
2019-01-22T07:43:27.601Z,4.53
2019-01-22T07:44:45.804Z,5.13
2019-01-22T07:46:11.748Z,5.60
2019-01-22T07:47:24.336Z,5.40
2019-01-22T07:48:33.717Z,4.60
2019-01-22T07:49:45.888Z,6.17
2019-01-22T07:51:07.253Z,5.30
2019-01-22T07:52:22.692Z,5.23
2019-01-22T07:53:37.814Z,5.37
2019-01-22T07:54:53.992Z,5.60
2019-01-22T07:56:13.104Z,5.10
2019-01-22T07:57:38.811Z,4.93
2019-01-22T07:58:48.272Z,5.17
2019-01-22T07:59:54.913Z,5.20
2019-01-22T08:01:16.493Z,4.73
2019-01-22T08:02:31.940Z,5.13
2019-01-22T08:03:54.758Z,4.90
2019-01-22T08:05:09.030Z,4.77
2019-01-22T08:06:13.502Z,4.60
2019-01-22T08:07:24.521Z,5.07
2019-01-22T08:08:36.814Z,5.07
2019-01-22T08:10:18.014Z,5.57
2019-01-22T08:11:39.748Z,4.90
2019-01-22T08:13:08.710Z,5.03
2019-01-22T08:14:30.156Z,4.97
2019-01-22T08:15:55.938Z,5.07
2019-01-22T08:17:07.682Z,4.80
2019-01-22T08:18:17.080Z,4.80
2019-01-22T08:19:32.831Z,4.47
2019-01-22T08:20:48.292Z,4.17
2019-01-22T08:22:12.719Z,4.80
2019-01-22T08:23:31.275Z,4.50
2019-01-22T08:24:40.671Z,4.47
2019-01-22T08:26:17.435Z,4.80
2019-01-22T08:27:38.748Z,4.30
2019-01-22T08:28:51.394Z,4.43
2019-01-22T08:30:00.618Z,4.60
2019-01-22T08:31:12.996Z,4.27
2019-01-22T08:32:49.618Z,4.20
2019-01-22T08:34:17.045Z,4.47
2019-01-22T08:35:29.206Z,4.20
2019-01-22T08:36:47.477Z,5.03
2019-01-22T08:37:56.959Z,4.03
2019-01-22T08:39:05.003Z,4.63
2019-01-22T08:40:26.249Z,4.73
2019-01-22T08:41:35.591Z,4.50
2019-01-22T08:42:45.095Z,3.87
2019-01-22T08:44:09.411Z,4.33
2019-01-22T08:45:27.812Z,4.57
2019-01-22T08:46:52.190Z,4.50
2019-01-22T08:48:24.038Z,4.20
2019-01-22T08:49:30.655Z,4.40
2019-01-22T08:50:43.142Z,4.33
2019-01-22T08:52:07.417Z,4.40
2019-01-22T08:53:15.290Z,4.17
2019-01-22T08:54:24.544Z,4.10
2019-01-22T08:55:42.780Z,4.20
2019-01-22T08:56:55.182Z,4.63
2019-01-22T08:58:16.443Z,4.27
2019-01-22T08:59:23.379Z,4.27
2019-01-22T09:00:36.099Z,4.43
2019-01-22T09:01:51.574Z,4.27
2019-01-22T09:03:09.779Z,4.27
2019-01-22T09:04:21.902Z,3.90
2019-01-22T09:05:43.344Z,4.07
2019-01-22T09:06:59.115Z,3.93
2019-01-22T09:08:09.747Z,4.07
2019-01-22T09:09:31.787Z,4.33
2019-01-22T09:11:06.546Z,3.77
2019-01-22T09:12:21.590Z,4.03
2019-01-22T09:13:47.491Z,4.07
2019-01-22T09:14:56.860Z,4.30
2019-01-22T09:16:25.656Z,4.40
2019-01-22T09:17:51.724Z,4.30
2019-01-22T09:19:07.479Z,3.70
2019-01-22T09:20:17.244Z,4.07
2019-01-22T09:21:26.624Z,4.10
2019-01-22T09:22:54.978Z,3.33
2019-01-22T09:24:17.548Z,4.00
2019-01-22T09:25:26.899Z,4.20
2019-01-22T09:26:57.500Z,3.70
2019-01-22T09:28:16.184Z,4.50
2019-01-22T09:29:35.588Z,3.30
2019-01-22T09:30:51.408Z,4.20
2019-01-22T09:32:09.728Z,4.03
2019-01-22T09:33:16.373Z,3.63
2019-01-22T09:34:41.857Z,3.80
2019-01-22T09:36:03.310Z,4.17
2019-01-22T09:37:12.501Z,3.80
2019-01-22T09:38:16.064Z,4.67
2019-01-22T09:39:19.644Z,4.50
2019-01-22T09:40:24.539Z,3.60
2019-01-22T09:41:28.252Z,3.93
2019-01-22T09:42:31.877Z,3.73
2019-01-22T09:43:35.448Z,3.50
2019-01-22T09:44:38.935Z,4.00
2019-01-22T09:45:42.878Z,4.30
2019-01-22T09:46:46.374Z,3.70
2019-01-22T09:47:49.929Z,3.90
2019-01-22T09:48:53.565Z,4.60
2019-01-22T09:49:57.362Z,3.70
2019-01-22T09:51:01.074Z,3.47
2019-01-22T09:52:04.705Z,3.70
2019-01-22T09:53:08.371Z,3.33
2019-01-22T09:54:12.069Z,3.37
2019-01-22T09:55:22.183Z,3.63
2019-01-22T09:56:21.176Z,3.70
2019-01-22T09:57:24.951Z,3.77
2019-01-22T09:58:28.515Z,4.00
2019-01-22T09:59:32.137Z,3.87
2019-01-22T10:00:35.843Z,4.13
2019-01-22T10:01:39.484Z,4.03
2019-01-22T10:02:43.153Z,3.67
2019-01-22T10:03:46.817Z,3.70
2019-01-22T10:04:50.377Z,3.40
2019-01-22T10:05:53.966Z,3.37
2019-01-22T10:06:57.686Z,3.53
2019-01-22T10:08:01.226Z,3.83
2019-01-22T10:09:08.063Z,3.70
2019-01-22T10:10:17.782Z,3.70
2019-01-22T10:11:21.350Z,4.10
2019-01-22T10:12:25.039Z,3.70
2019-01-22T10:13:28.624Z,3.60
2019-01-22T10:14:32.193Z,3.50
2019-01-22T10:15:35.854Z,4.43
2019-01-22T10:16:39.521Z,4.00
2019-01-22T10:17:43.174Z,3.70
2019-01-22T10:18:46.788Z,4.00
2019-01-22T10:19:50.372Z,3.77
2019-01-22T10:20:53.999Z,3.87
2019-01-22T10:21:57.676Z,3.90
2019-01-22T10:23:01.311Z,4.20
2019-01-22T10:24:05.260Z,3.53
2019-01-22T10:25:10.691Z,3.73
2019-01-22T10:26:14.293Z,4.00
2019-01-22T10:27:17.801Z,3.20
2019-01-22T10:28:21.393Z,3.60
2019-01-22T10:29:24.935Z,3.60
2019-01-22T10:30:28.601Z,3.50
2019-01-22T10:31:32.229Z,3.80
2019-01-22T10:32:35.779Z,4.00
2019-01-22T10:33:39.277Z,4.00
2019-01-22T10:34:42.900Z,3.73
2019-01-22T10:35:46.463Z,3.60
2019-01-22T10:36:50.116Z,3.63
2019-01-22T10:37:53.769Z,3.90
2019-01-22T10:38:57.264Z,2.73
2019-01-22T10:40:00.828Z,3.23
2019-01-22T10:41:04.457Z,3.20
2019-01-22T10:42:07.951Z,3.23
2019-01-22T10:43:11.548Z,3.47
2019-01-22T10:44:15.038Z,3.90
2019-01-22T10:45:19.765Z,3.03
2019-01-22T10:46:23.411Z,4.37
2019-01-22T10:47:26.903Z,3.30
2019-01-22T10:48:30.493Z,3.07
2019-01-22T10:49:33.986Z,3.40
2019-01-22T10:50:37.522Z,3.33
2019-01-22T10:51:41.042Z,3.63
2019-01-22T10:52:44.565Z,3.80
2019-01-22T10:53:48.119Z,3.80
2019-01-22T10:54:51.714Z,3.70
2019-01-22T10:55:55.288Z,4.00
2019-01-22T10:56:58.835Z,3.20
2019-01-22T10:58:03.763Z,3.50
2019-01-22T10:59:07.520Z,3.30
2019-01-22T11:00:19.830Z,3.53
2019-01-22T11:01:23.408Z,3.37
2019-01-22T11:02:26.885Z,3.30
2019-01-22T11:03:30.591Z,3.57
2019-01-22T11:04:34.127Z,3.33
2019-01-22T11:05:38.906Z,3.60
2019-01-22T11:06:42.552Z,3.80
2019-01-22T11:07:46.104Z,3.00
2019-01-22T11:08:49.792Z,3.00
2019-01-22T11:09:53.374Z,3.30
2019-01-22T11:10:56.881Z,2.97
2019-01-22T11:12:00.524Z,3.60
2019-01-22T11:13:04.378Z,3.27
2019-01-22T11:14:08.044Z,3.63
2019-01-22T11:15:12.974Z,3.53
2019-01-22T11:16:16.478Z,3.27
2019-01-22T11:17:19.962Z,3.13
2019-01-22T11:18:23.625Z,2.77
2019-01-22T11:19:27.967Z,3.30
2019-01-22T11:20:31.945Z,3.60
2019-01-22T11:21:35.501Z,3.37
2019-01-22T11:22:39.113Z,3.23
2019-01-22T11:23:42.630Z,2.87
2019-01-22T11:24:46.122Z,3.50
2019-01-22T11:25:49.752Z,3.80
2019-01-22T11:26:53.336Z,4.03
2019-01-22T11:27:56.883Z,3.53
2019-01-22T11:29:00.397Z,3.60
2019-01-22T11:30:09.692Z,3.30
2019-01-22T11:31:13.178Z,3.90
2019-01-22T11:32:16.819Z,3.00
2019-01-22T11:33:20.469Z,3.60
2019-01-22T11:34:24.059Z,3.23
2019-01-22T11:35:27.812Z,3.70
2019-01-22T11:36:31.288Z,3.23
2019-01-22T11:37:34.922Z,3.53
2019-01-22T11:38:38.500Z,3.30
2019-01-22T11:39:42.081Z,3.33
2019-01-22T11:40:45.742Z,3.43
2019-01-22T11:41:49.355Z,3.57
2019-01-22T11:42:52.886Z,3.70
2019-01-22T11:43:56.396Z,3.23
2019-01-22T11:44:59.988Z,3.23
2019-01-22T11:46:03.590Z,2.83
2019-01-22T11:47:07.139Z,3.20
2019-01-22T11:48:10.967Z,3.10
2019-01-22T11:49:14.652Z,3.70
2019-01-22T11:50:20.673Z,3.37
2019-01-22T11:51:24.303Z,3.20
2019-01-22T11:52:27.889Z,3.17
2019-01-22T11:53:31.521Z,3.60
2019-01-22T11:54:35.177Z,3.83
2019-01-22T11:55:38.884Z,3.40
2019-01-22T11:56:42.477Z,4.00
2019-01-22T11:57:46.090Z,3.67
2019-01-22T11:58:49.595Z,3.53
2019-01-22T11:59:53.224Z,3.10
2019-01-22T12:00:57.131Z,3.57
2019-01-22T12:02:00.735Z,3.10
2019-01-22T12:03:04.923Z,3.13
2019-01-22T12:04:08.594Z,3.23
2019-01-22T12:05:12.160Z,2.90
2019-01-22T12:06:15.713Z,3.03
2019-01-22T12:07:19.557Z,3.73
2019-01-22T12:08:23.032Z,3.70
2019-01-22T12:09:26.648Z,3.37
2019-01-22T12:10:30.369Z,3.33
2019-01-22T12:11:33.989Z,3.20
2019-01-22T12:12:37.706Z,3.10
2019-01-22T12:13:41.365Z,3.20
2019-01-22T12:14:44.883Z,3.30
2019-01-22T12:15:48.742Z,3.20
2019-01-22T12:16:52.427Z,3.70
2019-01-22T12:17:56.407Z,3.83
2019-01-22T12:18:59.981Z,3.23
2019-01-22T12:20:05.173Z,3.63
2019-01-22T12:21:10.362Z,2.70
2019-01-22T12:22:15.959Z,3.60
2019-01-22T12:23:19.637Z,3.20
2019-01-22T12:24:23.258Z,3.10
2019-01-22T12:25:26.892Z,3.30
2019-01-22T12:26:30.533Z,3.27
2019-01-22T12:27:34.281Z,3.40
2019-01-22T12:28:38.071Z,3.90
2019-01-22T12:29:41.836Z,3.60
2019-01-22T12:30:45.520Z,3.13
2019-01-22T12:31:49.003Z,3.57
2019-01-22T12:32:52.806Z,3.40
2019-01-22T12:33:56.400Z,3.40
2019-01-22T12:35:00.065Z,2.83
2019-01-22T12:36:04.186Z,3.30
2019-01-22T12:37:07.908Z,2.90
2019-01-22T12:38:11.665Z,3.43
2019-01-22T12:39:15.232Z,3.47
2019-01-22T12:40:21.367Z,3.10
2019-01-22T12:41:25.166Z,3.53
2019-01-22T12:42:34.513Z,3.47
2019-01-22T12:43:34.280Z,3.40
2019-01-22T12:44:37.870Z,2.93
2019-01-22T12:45:41.412Z,3.30
2019-01-22T12:46:45.189Z,2.97
2019-01-22T12:47:49.005Z,3.83
2019-01-22T12:48:54.333Z,3.40
2019-01-22T12:49:58.118Z,3.40
2019-01-22T12:51:01.642Z,3.00
2019-01-22T12:52:05.794Z,3.43
2019-01-22T12:53:09.401Z,3.00
2019-01-22T12:54:13.093Z,3.10
2019-01-22T12:55:16.985Z,3.20
2019-01-22T12:56:20.485Z,3.33
2019-01-22T12:57:23.945Z,3.50
2019-01-22T12:58:27.530Z,3.43
2019-01-22T12:59:31.421Z,2.67
2019-01-22T13:00:37.069Z,3.10
2019-01-22T13:01:40.791Z,3.37
2019-01-22T13:02:44.385Z,3.27
2019-01-22T13:03:48.049Z,3.30
2019-01-22T13:04:51.756Z,2.73
2019-01-22T13:05:56.174Z,3.20
2019-01-22T13:06:59.809Z,3.00
2019-01-22T13:08:03.674Z,2.90
2019-01-22T13:09:08.198Z,2.97
2019-01-22T13:10:11.873Z,3.33
2019-01-22T13:11:15.526Z,3.23
2019-01-22T13:12:19.092Z,3.53
2019-01-22T13:13:22.770Z,3.60
2019-01-22T13:14:26.348Z,3.23
2019-01-22T13:15:29.838Z,3.30
2019-01-22T13:16:33.432Z,2.60
2019-01-22T13:17:37.061Z,3.17
2019-01-22T13:18:40.671Z,3.27
2019-01-22T13:19:44.235Z,3.50
2019-01-22T13:20:47.840Z,2.93
2019-01-22T13:21:51.384Z,3.10
2019-01-22T13:22:54.915Z,2.90
2019-01-22T13:23:58.489Z,3.03
2019-01-22T13:25:02.133Z,3.10
2019-01-22T13:26:11.507Z,2.87
2019-01-22T13:27:11.253Z,2.70
2019-01-22T13:28:14.840Z,2.90
2019-01-22T13:29:18.544Z,3.10
2019-01-22T13:30:27.186Z,3.27
2019-01-22T13:31:30.768Z,3.33
2019-01-22T13:32:34.481Z,3.30
2019-01-22T13:33:38.047Z,3.37
2019-01-22T13:34:41.617Z,2.77
2019-01-22T13:35:45.279Z,3.23
2019-01-22T13:36:48.991Z,3.00
2019-01-22T13:37:52.740Z,3.00
2019-01-22T13:38:58.047Z,2.90
2019-01-22T13:40:03.755Z,3.13
2019-01-22T13:41:06.947Z,2.53
2019-01-22T13:42:10.767Z,3.37
2019-01-22T13:43:14.565Z,3.07
2019-01-22T13:44:18.199Z,3.00
2019-01-22T13:45:27.409Z,3.63
2019-01-22T13:46:30.962Z,3.23
2019-01-22T13:47:34.546Z,3.07
2019-01-22T13:48:38.200Z,2.63
2019-01-22T13:49:41.743Z,2.90
2019-01-22T13:50:46.262Z,3.10
2019-01-22T13:51:49.927Z,3.43
2019-01-22T13:52:53.557Z,3.20
2019-01-22T13:53:57.106Z,3.07
2019-01-22T13:55:00.764Z,3.40
2019-01-22T13:56:04.618Z,3.00
2019-01-22T13:57:08.258Z,2.53
2019-01-22T13:58:12.928Z,3.40
2019-01-22T13:59:16.580Z,2.97
2019-01-22T14:00:22.483Z,2.77
2019-01-22T14:01:26.047Z,2.97
2019-01-22T14:02:29.715Z,3.10
2019-01-22T14:03:33.398Z,3.33
2019-01-22T14:04:36.961Z,2.90
2019-01-22T14:05:40.522Z,2.80
2019-01-22T14:06:44.255Z,3.50
2019-01-22T14:07:47.911Z,3.20
2019-01-22T14:08:51.508Z,3.37
2019-01-22T14:09:54.991Z,3.23
2019-01-22T14:10:58.669Z,2.90
2019-01-22T14:12:02.344Z,3.10
2019-01-22T14:13:06.089Z,3.37
2019-01-22T14:14:09.749Z,2.80
2019-01-22T14:15:27.720Z,3.00
2019-01-22T14:16:31.253Z,3.17
2019-01-22T14:17:34.767Z,2.50
2019-01-22T14:18:38.324Z,2.90
2019-01-22T14:19:41.966Z,2.93
2019-01-22T14:20:45.434Z,3.57
2019-01-22T14:21:48.918Z,2.50
2019-01-22T14:22:52.401Z,2.83
2019-01-22T14:23:55.878Z,3.60
2019-01-22T14:24:59.426Z,2.90
2019-01-22T14:26:03.006Z,3.00
2019-01-22T14:27:06.761Z,2.87
2019-01-22T14:28:10.334Z,3.10
2019-01-22T14:29:13.821Z,3.30
2019-01-22T14:30:20.846Z,2.67
2019-01-22T14:31:24.430Z,4.33
2019-01-22T14:32:27.987Z,6.10
2019-01-22T14:33:31.580Z,4.57
2019-01-22T14:34:35.103Z,4.67
2019-01-22T14:35:38.671Z,5.30
2019-01-22T14:36:42.163Z,4.43
2019-01-22T14:37:45.704Z,5.00
2019-01-22T14:38:49.254Z,5.70
2019-01-22T14:39:52.846Z,5.30
2019-01-22T14:40:56.510Z,4.90
2019-01-22T14:42:00.075Z,4.90
2019-01-22T14:43:03.715Z,4.97
2019-01-22T14:44:07.202Z,5.30
2019-01-22T14:45:16.397Z,4.90
2019-01-22T14:46:20.078Z,5.30
2019-01-22T14:47:23.646Z,4.37
2019-01-22T14:48:27.131Z,4.60
2019-01-22T14:49:30.603Z,5.33
2019-01-22T14:50:34.779Z,4.77
2019-01-22T14:51:38.355Z,4.47
2019-01-22T14:52:41.906Z,5.00
2019-01-22T14:53:45.453Z,4.40
2019-01-22T14:54:48.929Z,4.87
2019-01-22T14:55:52.424Z,3.93
2019-01-22T14:56:55.986Z,4.60
2019-01-22T14:57:59.653Z,4.77
2019-01-22T14:59:03.223Z,4.57
2019-01-22T15:00:15.023Z,4.50
2019-01-22T15:01:18.806Z,4.07
2019-01-22T15:02:22.390Z,4.27
2019-01-22T15:03:26.110Z,4.23
2019-01-22T15:04:29.971Z,4.40
2019-01-22T15:05:33.651Z,4.30
2019-01-22T15:06:37.222Z,4.20
2019-01-22T15:07:40.820Z,4.60
2019-01-22T15:08:44.313Z,4.10
2019-01-22T15:09:47.782Z,4.10
2019-01-22T15:10:51.317Z,4.80
2019-01-22T15:11:54.872Z,4.13
2019-01-22T15:12:59.609Z,4.63
2019-01-22T15:14:03.168Z,4.13
2019-01-22T15:15:10.086Z,4.20
2019-01-22T15:16:13.661Z,4.63
2019-01-22T15:17:17.180Z,3.50
2019-01-22T15:18:20.747Z,4.13
2019-01-22T15:19:24.330Z,4.50
2019-01-22T15:20:28.152Z,4.30
2019-01-22T15:21:31.855Z,4.20